Time;durP1;ratioP1;P1;durP2;ratioP2;P2;SDS_P1;SDS_P2;PMS_P1;PMS_P2;Temp;Humidity;BMP_temperature;BMP_pressure;BME280_temperature;BME280_humidity;BME280_pressure;Samples;Min_cycle;Max_cycle;Signal;HPM_P1;HPM_P2
2022/12/16 00:01:06;;;;;;;8.60;6.13;;;;;;;5.10;92.95;96427.75;5134106;27;20066;-66
2022/12/16 00:03:35;;;;;;;8.57;6.53;;;;;;;5.16;92.84;96436.31;5133988;27;20499;-66
2022/12/16 00:06:03;;;;;;;7.72;5.70;;;;;;;5.25;93.10;96432.69;5134063;27;20047;-65
2022/12/16 00:08:33;;;;;;;9.77;5.70;;;;;;;5.31;92.58;96432.56;5134063;27;20100;-66
2022/12/16 00:11:01;;;;;;;4.35;3.25;;;;;;;5.31;92.27;96423.94;5133959;27;20043;-66
2022/12/16 00:13:30;;;;;;;10.32;5.68;;;;;;;5.37;91.58;96430.75;5134306;28;20616;-62
2022/12/16 00:15:58;;;;;;;11.27;6.13;;;;;;;5.41;91.68;96434.97;5134016;28;20043;-62
2022/12/16 00:18:26;;;;;;;8.70;6.35;;;;;;;5.44;91.76;96434.91;5133964;28;20599;-62
2022/12/16 00:20:55;;;;;;;16.38;6.90;;;;;;;5.45;91.61;96444.44;5133844;28;20086;-65
2022/12/16 00:23:23;;;;;;;9.05;7.13;;;;;;;5.49;91.84;96453.88;5133942;28;20545;-63
2022/12/16 00:25:50;;;;;;;11.43;7.57;;;;;;;5.56;91.98;96458.03;5133838;28;20505;-65
2022/12/16 00:28:21;;;;;;;13.02;6.30;;;;;;;5.54;92.41;96470.19;5134005;28;20112;-64
2022/12/16 00:30:49;;;;;;;10.32;5.82;;;;;;;5.58;91.80;96473.59;5133971;28;20130;-66
2022/12/16 00:33:17;;;;;;;15.85;9.05;;;;;;;5.51;92.35;96470.25;5133996;28;20047;-63
2022/12/16 00:35:44;;;;;;;17.77;10.63;;;;;;;5.46;93.02;96463.44;5133812;28;20054;-65
2022/12/16 00:38:13;;;;;;;19.77;12.02;;;;;;;5.58;93.56;96465.81;5133832;28;20095;-64
2022/12/16 00:40:40;;;;;;;16.90;10.88;;;;;;;5.66;93.42;96455.28;5133898;28;20043;-67
2022/12/16 00:43:07;;;;;;;17.55;10.80;;;;;;;5.72;93.08;96456.91;5133531;28;20058;-64
2022/12/16 00:45:34;;;;;;;20.48;11.32;;;;;;;5.70;93.49;96456.91;5133892;28;20471;-62
2022/12/16 00:48:02;;;;;;;17.65;12.38;;;;;;;5.79;94.07;96463.66;5133752;28;20126;-66
2022/12/16 00:50:29;;;;;;;32.55;18.90;;;;;;;5.85;94.04;96458.34;5135309;27;20047;-65
2022/12/16 00:52:57;;;;;;;19.35;12.00;;;;;;;5.87;93.81;96473.91;5137695;27;20054;-63
2022/12/16 00:55:26;;;;;;;13.02;9.88;;;;;;;5.89;93.91;96469.50;5137649;27;20043;-66
2022/12/16 00:57:53;;;;;;;17.25;9.68;;;;;;;5.97;93.51;96456.38;5137588;27;20051;-63
2022/12/16 01:00:21;;;;;;;17.42;9.55;;;;;;;5.96;93.43;96454.69;5137617;27;20382;-66
2022/12/16 01:02:49;;;;;;;15.20;9.65;;;;;;;5.96;93.91;96452.09;5137568;27;20039;-65
2022/12/16 01:05:19;;;;;;;14.48;9.73;;;;;;;5.99;94.33;96454.63;5137340;27;20134;-63
2022/12/16 01:07:47;;;;;;;15.30;10.07;;;;;;;6.03;94.27;96451.06;5137363;27;20122;-66
2022/12/16 01:10:14;;;;;;;14.48;9.32;;;;;;;6.10;94.21;96444.00;5137407;27;20100;-67
2022/12/16 01:12:42;;;;;;;14.88;10.55;;;;;;;6.18;94.11;96431.72;5137324;27;20085;-63
2022/12/16 01:15:11;;;;;;;16.88;9.85;;;;;;;6.23;94.04;96429.03;5137246;27;20122;-65
2022/12/16 01:17:40;;;;;;;11.15;8.88;;;;;;;6.25;94.37;96430.69;5137207;27;20065;-63
2022/12/16 01:20:08;;;;;;;13.27;9.48;;;;;;;6.30;94.06;96430.59;5137238;27;20091;-63
2022/12/16 01:22:36;;;;;;;14.55;8.00;;;;;;;6.30;94.18;96439.22;5137105;27;20492;-62
2022/12/16 01:25:04;;;;;;;9.30;6.90;;;;;;;6.36;93.98;96437.41;5137244;27;20058;-63
2022/12/16 01:27:31;;;;;;;11.93;8.13;;;;;;;6.35;93.97;96436.53;5137017;27;20129;-66
2022/12/16 01:30:00;;;;;;;12.63;8.05;;;;;;;6.34;94.19;96434.81;5136944;27;20130;-66
2022/12/16 01:32:27;;;;;;;15.45;8.88;;;;;;;6.43;94.34;96446.75;5136873;27;20074;-64
2022/12/16 01:34:55;;;;;;;13.63;8.80;;;;;;;6.49;94.28;96449.22;5136936;27;20043;-63
2022/12/16 01:37:22;;;;;;;13.52;9.52;;;;;;;6.50;94.72;96460.47;5136986;27;20047;-63
2022/12/16 01:39:50;;;;;;;13.30;9.60;;;;;;;6.54;94.49;96451.72;5136994;27;20536;-64
2022/12/16 01:42:19;;;;;;;13.00;8.88;;;;;;;6.58;93.95;96463.75;5136701;27;20404;-64
2022/12/16 01:44:48;;;;;;;13.45;9.02;;;;;;;6.57;93.88;96464.63;5136571;27;20086;-63
2022/12/16 01:47:20;;;;;;;14.73;10.27;;;;;;;6.57;93.66;96460.28;5136783;27;20070;-63
2022/12/16 01:49:53;;;;;;;16.55;11.57;;;;;;;6.61;93.39;96466.28;5136611;27;20118;-64
2022/12/16 01:52:24;;;;;;;18.08;13.07;;;;;;;6.62;93.29;96457.56;5136472;27;20100;-62
2022/12/16 01:54:56;;;;;;;19.20;12.48;;;;;;;6.64;93.22;96455.81;5136570;27;20531;-66
2022/12/16 01:57:33;;;;;;;20.25;13.85;;;;;;;6.60;93.00;96446.38;5136416;27;20062;-63
2022/12/16 02:00:03;;;;;;;24.45;13.88;;;;;;;6.57;93.42;96436.88;5136520;27;20131;-63
2022/12/16 02:02:32;;;;;;;24.15;13.48;;;;;;;6.66;93.31;96448.84;5135149;27;20154;-64
2022/12/16 02:07:43;;;;;;;23.27;14.48;;;;;;;6.71;93.48;96453.91;5136336;27;20113;-66
2022/12/16 02:10:11;;;;;;;18.58;12.98;;;;;;;6.71;93.43;96456.50;5136442;27;20047;-64
2022/12/16 02:12:47;;;;;;;24.40;15.90;;;;;;;6.74;93.66;96455.59;5136206;27;20485;-66
2022/12/16 02:15:34;;;;;;;28.20;17.30;;;;;;;6.78;93.44;96450.28;5136191;27;20047;-67
2022/12/16 02:18:10;;;;;;;15.18;9.68;;;;;;;6.79;93.73;96438.97;5136021;27;20043;-63
2022/12/16 02:21:17;;;;;;;13.20;8.75;;;;;;;6.79;93.51;96440.72;5135965;27;20048;-63
2022/12/16 02:24:29;;;;;;;14.50;10.05;;;;;;;6.79;93.55;96440.72;5136040;27;20043;-62
2022/12/16 02:27:30;;;;;;;18.88;10.50;;;;;;;6.76;93.81;96433.84;5136038;27;20043;-65
2022/12/16 02:30:06;;;;;;;16.40;13.02;;;;;;;6.78;94.12;96439.03;5135849;27;20042;-65
2022/12/16 02:32:48;;;;;;;22.35;12.63;;;;;;;6.80;93.85;96435.47;5135845;27;20050;-66
2022/12/16 02:35:23;;;;;;;20.80;12.18;;;;;;;6.87;94.12;96432.75;5135657;27;20081;-63
2022/12/16 02:38:02;;;;;;;25.13;12.27;;;;;;;6.94;93.81;96411.75;5135686;27;20418;-63
2022/12/16 02:40:36;;;;;;;19.00;13.20;;;;;;;6.93;93.93;96390.97;5135650;27;20097;-63
2022/12/16 02:43:09;;;;;;;19.92;12.77;;;;;;;6.93;94.38;96399.63;5135332;27;20093;-65
2022/12/16 02:45:39;;;;;;;20.15;13.30;;;;;;;6.93;94.88;96396.19;5135443;27;20051;-66
2022/12/16 02:48:07;;;;;;;24.98;15.43;;;;;;;6.89;95.66;96385.00;5135307;27;20045;-63
2022/12/16 02:50:39;;;;;;;21.42;14.77;;;;;;;6.86;96.16;96379.03;5135363;27;20423;-66
2022/12/16 02:53:09;;;;;;;22.65;14.27;;;;;;;6.99;96.45;96374.34;5135264;27;20557;-64
2022/12/16 02:55:45;;;;;;;23.92;16.20;;;;;;;7.07;96.24;96381.06;5135209;27;20374;-66
2022/12/16 02:58:20;;;;;;;25.58;16.30;;;;;;;7.11;96.10;96387.03;5135250;27;20078;-65
2022/12/16 03:01:00;;;;;;;28.75;16.70;;;;;;;7.16;95.96;96392.09;5135182;27;20043;-63
2022/12/16 03:03:35;;;;;;;27.65;17.02;;;;;;;7.18;95.76;96393.78;5135183;27;20050;-62
2022/12/16 03:06:05;;;;;;;28.52;18.58;;;;;;;7.19;95.41;96399.81;5135067;27;20232;-66
2022/12/16 03:08:36;;;;;;;25.58;13.52;;;;;;;7.18;95.50;96406.78;5135171;27;20473;-66
2022/12/16 03:11:07;;;;;;;39.45;17.90;;;;;;;7.25;95.31;96409.25;5135123;27;20047;-64
2022/12/16 03:13:41;;;;;;;29.10;18.15;;;;;;;7.32;94.75;96401.19;5134774;27;20043;-65
2022/12/16 03:16:12;;;;;;;24.75;17.33;;;;;;;7.39;94.64;96403.66;5134767;27;20078;-63
2022/12/16 03:18:44;;;;;;;25.52;16.70;;;;;;;7.43;94.46;96406.13;5134929;27;20051;-66
2022/12/16 03:21:14;;;;;;;23.80;16.38;;;;;;;7.46;93.78;96406.03;5134781;27;20075;-65
2022/12/16 03:23:48;;;;;;;26.08;17.42;;;;;;;7.51;93.46;96410.25;5134697;27;20396;-66
2022/12/16 03:26:22;;;;;;;28.73;17.67;;;;;;;7.52;93.34;96406.75;5134733;27;20043;-63
2022/12/16 03:28:55;;;;;;;28.45;17.65;;;;;;;7.55;93.41;96410.13;5134662;27;20043;-64
2022/12/16 03:31:31;;;;;;;29.55;17.05;;;;;;;7.50;93.26;96383.41;5134591;27;20119;-64
2022/12/16 03:34:11;;;;;;;24.95;17.17;;;;;;;7.59;93.19;96406.53;5134755;27;20043;-65
2022/12/16 03:36:39;;;;;;;24.33;15.75;;;;;;;7.67;93.00;96427.16;5134506;27;20047;-66
2022/12/16 03:39:09;;;;;;;30.40;16.48;;;;;;;7.71;92.44;96426.16;5134416;27;20135;-64
2022/12/16 03:41:36;;;;;;;24.05;15.70;;;;;;;7.75;92.00;96432.16;5134215;27;20047;-66
2022/12/16 03:44:04;;;;;;;21.75;15.35;;;;;;;7.77;91.86;96434.72;5134455;27;20084;-63
2022/12/16 03:46:32;;;;;;;25.33;17.08;;;;;;;7.75;91.35;96437.38;5134353;27;20147;-65
2022/12/16 03:49:02;;;;;;;25.67;17.15;;;;;;;7.74;91.47;96425.25;5134256;27;20043;-62
2022/12/16 03:51:29;;;;;;;18.27;12.73;;;;;;;7.73;91.19;96431.34;5134347;27;20047;-66
2022/12/16 03:53:56;;;;;;;23.58;16.45;;;;;;;7.70;91.13;96427.06;5134346;27;20136;-63
2022/12/16 03:56:23;;;;;;;28.95;16.65;;;;;;;7.66;91.25;96425.47;5134316;27;20055;-66
2022/12/16 03:58:51;;;;;;;23.80;16.38;;;;;;;7.66;91.13;96428.06;5134245;27;20126;-63
2022/12/16 04:01:18;;;;;;;28.60;18.05;;;;;;;7.60;91.22;96423.03;5134154;27;20043;-66
2022/12/16 04:03:45;;;;;;;23.77;16.35;;;;;;;7.63;91.33;96425.53;5134237;27;20135;-66
2022/12/16 04:06:17;;;;;;;24.08;16.30;;;;;;;7.67;91.71;96423.69;5134116;27;20055;-64
2022/12/16 04:08:45;;;;;;;25.92;16.50;;;;;;;7.70;91.49;96427.06;5134221;27;20068;-65
2022/12/16 04:25:10;;;;;;;22.45;15.40;;;;;;;7.80;90.82;96445.88;5134921;27;20058;-64
2022/12/16 04:27:37;;;;;;;23.08;15.75;;;;;;;7.82;90.78;96444.09;5138253;27;20477;-66
2022/12/16 04:30:21;;;;;;;20.75;15.45;;;;;;;7.85;90.68;96445.75;5138075;27;20101;-62
